sensor_id;sensor_type;location;lat;lon;timestamp;P1;durP1;ratioP1;P2;durP2;ratioP2
2011;SDS011;1009;51.436;6.972;2022-07-06T00:00:32;2.07;;;1.60;;
2011;SDS011;1009;51.436;6.972;2022-07-06T00:02:59;2.77;;;1.90;;
2011;SDS011;1009;51.436;6.972;2022-07-06T00:05:27;4.27;;;1.90;;
2011;SDS011;1009;51.436;6.972;2022-07-06T00:07:53;3.33;;;1.40;;
2011;SDS011;1009;51.436;6.972;2022-07-06T00:10:20;5.00;;;1.90;;
2011;SDS011;1009;51.436;6.972;2022-07-06T00:12:47;3.90;;;1.83;;
2011;SDS011;1009;51.436;6.972;2022-07-06T00:15:17;2.47;;;1.83;;
2011;SDS011;1009;51.436;6.972;2022-07-06T00:17:43;3.57;;;1.50;;
2011;SDS011;1009;51.436;6.972;2022-07-06T00:20:10;3.13;;;1.80;;
2011;SDS011;1009;51.436;6.972;2022-07-06T00:22:39;3.50;;;2.23;;
2011;SDS011;1009;51.436;6.972;2022-07-06T00:25:06;3.63;;;1.50;;
2011;SDS011;1009;51.436;6.972;2022-07-06T00:27:36;5.00;;;2.17;;
2011;SDS011;1009;51.436;6.972;2022-07-06T00:30:03;6.00;;;2.73;;
2011;SDS011;1009;51.436;6.972;2022-07-06T00:32:30;3.60;;;2.43;;
2011;SDS011;1009;51.436;6.972;2022-07-06T00:34:57;4.77;;;2.13;;
2011;SDS011;1009;51.436;6.972;2022-07-06T00:37:27;5.40;;;1.90;;
2011;SDS011;1009;51.436;6.972;2022-07-06T00:39:58;5.70;;;1.70;;
2011;SDS011;1009;51.436;6.972;2022-07-06T00:42:25;4.10;;;2.10;;
2011;SDS011;1009;51.436;6.972;2022-07-06T00:44:51;4.80;;;1.83;;
2011;SDS011;1009;51.436;6.972;2022-07-06T00:47:18;5.33;;;2.00;;
2011;SDS011;1009;51.436;6.972;2022-07-06T00:49:45;2.20;;;1.53;;
2011;SDS011;1009;51.436;6.972;2022-07-06T00:52:29;2.20;;;1.70;;
2011;SDS011;1009;51.436;6.972;2022-07-06T00:54:58;3.37;;;2.10;;
2011;SDS011;1009;51.436;6.972;2022-07-06T00:57:27;5.43;;;1.63;;
2011;SDS011;1009;51.436;6.972;2022-07-06T00:59:54;3.37;;;1.90;;
2011;SDS011;1009;51.436;6.972;2022-07-06T01:02:22;3.90;;;2.17;;
2011;SDS011;1009;51.436;6.972;2022-07-06T01:04:49;3.37;;;1.87;;
2011;SDS011;1009;51.436;6.972;2022-07-06T01:07:15;2.57;;;1.83;;
2011;SDS011;1009;51.436;6.972;2022-07-06T01:09:42;3.60;;;1.50;;
2011;SDS011;1009;51.436;6.972;2022-07-06T01:12:11;2.40;;;1.77;;
2011;SDS011;1009;51.436;6.972;2022-07-06T01:14:38;4.07;;;1.73;;
2011;SDS011;1009;51.436;6.972;2022-07-06T01:17:05;2.50;;;1.80;;
2011;SDS011;1009;51.436;6.972;2022-07-06T01:19:32;4.00;;;1.80;;
2011;SDS011;1009;51.436;6.972;2022-07-06T01:22:00;2.20;;;1.60;;
2011;SDS011;1009;51.436;6.972;2022-07-06T01:24:27;2.20;;;1.50;;
2011;SDS011;1009;51.436;6.972;2022-07-06T01:26:54;3.70;;;1.63;;
2011;SDS011;1009;51.436;6.972;2022-07-06T01:29:21;3.60;;;1.80;;
2011;SDS011;1009;51.436;6.972;2022-07-06T01:31:48;5.93;;;1.73;;
2011;SDS011;1009;51.436;6.972;2022-07-06T01:34:17;3.60;;;1.43;;
2011;SDS011;1009;51.436;6.972;2022-07-06T01:36:44;3.60;;;1.50;;
2011;SDS011;1009;51.436;6.972;2022-07-06T01:39:12;2.20;;;1.73;;
2011;SDS011;1009;51.436;6.972;2022-07-06T01:41:39;3.30;;;1.77;;
2011;SDS011;1009;51.436;6.972;2022-07-06T01:44:06;4.73;;;1.80;;
2011;SDS011;1009;51.436;6.972;2022-07-06T01:46:33;6.73;;;1.47;;
2011;SDS011;1009;51.436;6.972;2022-07-06T01:49:00;3.20;;;1.47;;
2011;SDS011;1009;51.436;6.972;2022-07-06T01:51:28;2.47;;;1.50;;
2011;SDS011;1009;51.436;6.972;2022-07-06T01:53:55;2.90;;;1.20;;
2011;SDS011;1009;51.436;6.972;2022-07-06T01:56:23;2.03;;;1.40;;
2011;SDS011;1009;51.436;6.972;2022-07-06T01:58:51;3.83;;;1.43;;
2011;SDS011;1009;51.436;6.972;2022-07-06T02:01:18;2.60;;;1.50;;
2011;SDS011;1009;51.436;6.972;2022-07-06T02:03:46;3.60;;;1.43;;
2011;SDS011;1009;51.436;6.972;2022-07-06T02:06:13;3.80;;;1.63;;
2011;SDS011;1009;51.436;6.972;2022-07-06T02:08:40;2.37;;;1.43;;
2011;SDS011;1009;51.436;6.972;2022-07-06T02:11:08;3.63;;;1.43;;
2011;SDS011;1009;51.436;6.972;2022-07-06T02:13:37;3.20;;;1.50;;
2011;SDS011;1009;51.436;6.972;2022-07-06T02:16:04;2.07;;;1.60;;
2011;SDS011;1009;51.436;6.972;2022-07-06T02:18:31;3.90;;;1.40;;
2011;SDS011;1009;51.436;6.972;2022-07-06T02:20:58;3.50;;;1.87;;
2011;SDS011;1009;51.436;6.972;2022-07-06T02:23:24;3.70;;;1.40;;
2011;SDS011;1009;51.436;6.972;2022-07-06T02:25:52;2.70;;;1.87;;
2011;SDS011;1009;51.436;6.972;2022-07-06T02:28:18;3.20;;;1.87;;
2011;SDS011;1009;51.436;6.972;2022-07-06T02:30:47;5.60;;;1.77;;
2011;SDS011;1009;51.436;6.972;2022-07-06T02:33:13;3.47;;;1.70;;
2011;SDS011;1009;51.436;6.972;2022-07-06T02:35:40;2.90;;;1.60;;
2011;SDS011;1009;51.436;6.972;2022-07-06T02:38:08;4.87;;;2.07;;
2011;SDS011;1009;51.436;6.972;2022-07-06T02:40:35;4.60;;;1.83;;
2011;SDS011;1009;51.436;6.972;2022-07-06T02:43:02;4.07;;;1.80;;
2011;SDS011;1009;51.436;6.972;2022-07-06T02:45:29;5.23;;;1.97;;
2011;SDS011;1009;51.436;6.972;2022-07-06T02:47:57;4.90;;;2.13;;
2011;SDS011;1009;51.436;6.972;2022-07-06T02:50:24;4.63;;;1.70;;
2011;SDS011;1009;51.436;6.972;2022-07-06T02:52:51;5.67;;;2.30;;
2011;SDS011;1009;51.436;6.972;2022-07-06T02:55:20;4.63;;;2.20;;
2011;SDS011;1009;51.436;6.972;2022-07-06T02:57:47;4.43;;;2.27;;
2011;SDS011;1009;51.436;6.972;2022-07-06T03:00:14;5.47;;;2.40;;
2011;SDS011;1009;51.436;6.972;2022-07-06T03:02:41;4.67;;;2.50;;
2011;SDS011;1009;51.436;6.972;2022-07-06T03:05:10;9.73;;;3.17;;
2011;SDS011;1009;51.436;6.972;2022-07-06T03:07:36;4.17;;;2.70;;
2011;SDS011;1009;51.436;6.972;2022-07-06T03:10:04;7.57;;;3.00;;
2011;SDS011;1009;51.436;6.972;2022-07-06T03:12:31;5.27;;;3.60;;
2011;SDS011;1009;51.436;6.972;2022-07-06T03:14:58;6.77;;;2.50;;
2011;SDS011;1009;51.436;6.972;2022-07-06T03:17:24;6.80;;;3.50;;
2011;SDS011;1009;51.436;6.972;2022-07-06T03:19:51;6.63;;;3.73;;
2011;SDS011;1009;51.436;6.972;2022-07-06T03:22:19;6.73;;;3.50;;
2011;SDS011;1009;51.436;6.972;2022-07-06T03:24:46;9.83;;;3.70;;
2011;SDS011;1009;51.436;6.972;2022-07-06T03:27:13;8.67;;;3.60;;
2011;SDS011;1009;51.436;6.972;2022-07-06T03:29:40;6.53;;;3.33;;
2011;SDS011;1009;51.436;6.972;2022-07-06T03:32:07;8.80;;;4.10;;
2011;SDS011;1009;51.436;6.972;2022-07-06T03:34:34;8.00;;;3.63;;
2011;SDS011;1009;51.436;6.972;2022-07-06T03:37:01;11.70;;;4.90;;
2011;SDS011;1009;51.436;6.972;2022-07-06T03:39:29;9.57;;;4.33;;
2011;SDS011;1009;51.436;6.972;2022-07-06T03:41:56;10.90;;;4.30;;
2011;SDS011;1009;51.436;6.972;2022-07-06T03:44:23;13.60;;;5.17;;
2011;SDS011;1009;51.436;6.972;2022-07-06T03:46:50;8.47;;;4.00;;
2011;SDS011;1009;51.436;6.972;2022-07-06T03:49:20;6.63;;;3.90;;
2011;SDS011;1009;51.436;6.972;2022-07-06T03:51:47;10.50;;;4.20;;
2011;SDS011;1009;51.436;6.972;2022-07-06T03:54:13;9.03;;;3.83;;
2011;SDS011;1009;51.436;6.972;2022-07-06T03:56:41;6.30;;;3.67;;
2011;SDS011;1009;51.436;6.972;2022-07-06T03:59:08;8.50;;;3.53;;
2011;SDS011;1009;51.436;6.972;2022-07-06T04:01:35;6.30;;;3.70;;
2011;SDS011;1009;51.436;6.972;2022-07-06T04:04:02;9.13;;;3.53;;
2011;SDS011;1009;51.436;6.972;2022-07-06T04:06:28;7.17;;;3.43;;
2011;SDS011;1009;51.436;6.972;2022-07-06T04:08:55;8.60;;;3.90;;
2011;SDS011;1009;51.436;6.972;2022-07-06T04:11:22;8.00;;;3.50;;
2011;SDS011;1009;51.436;6.972;2022-07-06T04:13:50;7.00;;;4.03;;
2011;SDS011;1009;51.436;6.972;2022-07-06T04:16:19;6.13;;;3.70;;
2011;SDS011;1009;51.436;6.972;2022-07-06T04:18:46;7.50;;;3.40;;
2011;SDS011;1009;51.436;6.972;2022-07-06T04:21:13;7.03;;;3.40;;
2011;SDS011;1009;51.436;6.972;2022-07-06T04:23:40;6.40;;;3.63;;
2011;SDS011;1009;51.436;6.972;2022-07-06T04:26:07;6.40;;;3.87;;
2011;SDS011;1009;51.436;6.972;2022-07-06T04:28:34;8.33;;;3.30;;
2011;SDS011;1009;51.436;6.972;2022-07-06T04:31:02;4.87;;;3.33;;
2011;SDS011;1009;51.436;6.972;2022-07-06T04:33:29;6.13;;;3.03;;
2011;SDS011;1009;51.436;6.972;2022-07-06T04:35:56;7.27;;;2.97;;
2011;SDS011;1009;51.436;6.972;2022-07-06T04:38:22;5.33;;;2.97;;
2011;SDS011;1009;51.436;6.972;2022-07-06T04:40:49;7.10;;;3.27;;
2011;SDS011;1009;51.436;6.972;2022-07-06T04:43:16;5.50;;;2.70;;
2011;SDS011;1009;51.436;6.972;2022-07-06T04:45:43;5.00;;;3.00;;
2011;SDS011;1009;51.436;6.972;2022-07-06T04:48:11;6.53;;;3.27;;
2011;SDS011;1009;51.436;6.972;2022-07-06T04:50:38;4.60;;;2.73;;
2011;SDS011;1009;51.436;6.972;2022-07-06T04:53:05;5.63;;;3.00;;
2011;SDS011;1009;51.436;6.972;2022-07-06T04:55:32;6.03;;;3.03;;
2011;SDS011;1009;51.436;6.972;2022-07-06T04:57:59;8.13;;;3.83;;
2011;SDS011;1009;51.436;6.972;2022-07-06T05:00:26;6.20;;;3.17;;
2011;SDS011;1009;51.436;6.972;2022-07-06T05:02:53;9.70;;;3.80;;
2011;SDS011;1009;51.436;6.972;2022-07-06T05:05:21;6.80;;;3.60;;
2011;SDS011;1009;51.436;6.972;2022-07-06T05:07:48;9.97;;;3.80;;
2011;SDS011;1009;51.436;6.972;2022-07-06T05:10:15;5.97;;;3.83;;
2011;SDS011;1009;51.436;6.972;2022-07-06T05:12:42;8.80;;;4.03;;
2011;SDS011;1009;51.436;6.972;2022-07-06T05:15:10;7.90;;;3.67;;
2011;SDS011;1009;51.436;6.972;2022-07-06T05:17:36;5.43;;;3.33;;
2011;SDS011;1009;51.436;6.972;2022-07-06T05:20:04;9.30;;;4.17;;
2011;SDS011;1009;51.436;6.972;2022-07-06T05:22:33;6.97;;;3.70;;
2011;SDS011;1009;51.436;6.972;2022-07-06T05:25:00;8.87;;;4.13;;
2011;SDS011;1009;51.436;6.972;2022-07-06T05:27:27;8.50;;;4.40;;
2011;SDS011;1009;51.436;6.972;2022-07-06T05:29:54;10.37;;;4.70;;
2011;SDS011;1009;51.436;6.972;2022-07-06T05:32:20;10.27;;;3.97;;
2011;SDS011;1009;51.436;6.972;2022-07-06T05:34:53;9.67;;;4.27;;
2011;SDS011;1009;51.436;6.972;2022-07-06T05:37:20;7.60;;;4.30;;
2011;SDS011;1009;51.436;6.972;2022-07-06T05:39:48;10.13;;;4.37;;
2011;SDS011;1009;51.436;6.972;2022-07-06T05:42:15;6.60;;;3.33;;
2011;SDS011;1009;51.436;6.972;2022-07-06T05:44:43;9.90;;;4.37;;
2011;SDS011;1009;51.436;6.972;2022-07-06T05:47:10;14.20;;;3.87;;
2011;SDS011;1009;51.436;6.972;2022-07-06T05:49:54;12.50;;;2.97;;
2011;SDS011;1009;51.436;6.972;2022-07-06T05:52:39;7.30;;;3.10;;
2011;SDS011;1009;51.436;6.972;2022-07-06T05:55:09;5.50;;;2.80;;
2011;SDS011;1009;51.436;6.972;2022-07-06T05:57:36;4.07;;;2.13;;
2011;SDS011;1009;51.436;6.972;2022-07-06T06:00:03;5.63;;;1.50;;
2011;SDS011;1009;51.436;6.972;2022-07-06T06:02:37;4.10;;;1.20;;
2011;SDS011;1009;51.436;6.972;2022-07-06T06:05:06;5.60;;;1.70;;
2011;SDS011;1009;51.436;6.972;2022-07-06T06:07:34;4.13;;;1.07;;
2011;SDS011;1009;51.436;6.972;2022-07-06T06:10:02;5.10;;;1.33;;
2011;SDS011;1009;51.436;6.972;2022-07-06T06:12:31;3.80;;;1.20;;
2011;SDS011;1009;51.436;6.972;2022-07-06T06:14:58;7.67;;;1.90;;
2011;SDS011;1009;51.436;6.972;2022-07-06T06:17:24;4.87;;;1.10;;
2011;SDS011;1009;51.436;6.972;2022-07-06T06:19:51;3.50;;;1.50;;
2011;SDS011;1009;51.436;6.972;2022-07-06T06:22:18;1.67;;;1.13;;
2011;SDS011;1009;51.436;6.972;2022-07-06T06:24:45;2.30;;;1.27;;
2011;SDS011;1009;51.436;6.972;2022-07-06T06:27:12;2.57;;;1.40;;
2011;SDS011;1009;51.436;6.972;2022-07-06T06:29:40;3.17;;;1.13;;
2011;SDS011;1009;51.436;6.972;2022-07-06T06:32:09;4.20;;;1.40;;
2011;SDS011;1009;51.436;6.972;2022-07-06T06:34:36;2.20;;;1.00;;
2011;SDS011;1009;51.436;6.972;2022-07-06T06:37:03;5.23;;;1.40;;
2011;SDS011;1009;51.436;6.972;2022-07-06T06:39:29;4.53;;;1.40;;
2011;SDS011;1009;51.436;6.972;2022-07-06T06:41:56;3.53;;;1.30;;
2011;SDS011;1009;51.436;6.972;2022-07-06T06:44:23;5.80;;;1.50;;
2011;SDS011;1009;51.436;6.972;2022-07-06T06:46:52;4.27;;;1.27;;
2011;SDS011;1009;51.436;6.972;2022-07-06T06:49:19;3.17;;;1.47;;
2011;SDS011;1009;51.436;6.972;2022-07-06T06:51:46;3.00;;;1.00;;
2011;SDS011;1009;51.436;6.972;2022-07-06T06:54:12;1.93;;;1.23;;
2011;SDS011;1009;51.436;6.972;2022-07-06T06:56:39;5.20;;;1.33;;
2011;SDS011;1009;51.436;6.972;2022-07-06T06:59:06;2.77;;;0.87;;
2011;SDS011;1009;51.436;6.972;2022-07-06T07:01:33;4.17;;;1.23;;
2011;SDS011;1009;51.436;6.972;2022-07-06T07:04:01;2.90;;;0.93;;
2011;SDS011;1009;51.436;6.972;2022-07-06T07:06:28;2.80;;;1.10;;
2011;SDS011;1009;51.436;6.972;2022-07-06T07:08:54;2.83;;;1.10;;
2011;SDS011;1009;51.436;6.972;2022-07-06T07:11:22;1.70;;;0.80;;
2011;SDS011;1009;51.436;6.972;2022-07-06T07:13:49;1.80;;;0.97;;
2011;SDS011;1009;51.436;6.972;2022-07-06T07:16:16;4.73;;;1.10;;
2011;SDS011;1009;51.436;6.972;2022-07-06T07:18:44;2.80;;;1.23;;
2011;SDS011;1009;51.436;6.972;2022-07-06T07:21:18;3.00;;;1.40;;
2011;SDS011;1009;51.436;6.972;2022-07-06T07:23:45;3.10;;;1.20;;
2011;SDS011;1009;51.436;6.972;2022-07-06T07:26:12;2.80;;;1.23;;
2011;SDS011;1009;51.436;6.972;2022-07-06T07:28:38;3.53;;;1.17;;
2011;SDS011;1009;51.436;6.972;2022-07-06T07:31:05;3.60;;;0.90;;
2011;SDS011;1009;51.436;6.972;2022-07-06T07:33:32;3.70;;;1.20;;
2011;SDS011;1009;51.436;6.972;2022-07-06T07:36:00;1.83;;;1.07;;
2011;SDS011;1009;51.436;6.972;2022-07-06T07:38:28;4.87;;;1.20;;
2011;SDS011;1009;51.436;6.972;2022-07-06T07:40:55;2.03;;;0.73;;
2011;SDS011;1009;51.436;6.972;2022-07-06T07:43:22;3.57;;;1.00;;
2011;SDS011;1009;51.436;6.972;2022-07-06T07:45:48;2.70;;;1.00;;
2011;SDS011;1009;51.436;6.972;2022-07-06T07:48:15;2.27;;;0.87;;
2011;SDS011;1009;51.436;6.972;2022-07-06T07:50:53;1.80;;;1.00;;
2011;SDS011;1009;51.436;6.972;2022-07-06T07:53:19;1.30;;;0.70;;
2011;SDS011;1009;51.436;6.972;2022-07-06T07:55:47;1.90;;;0.70;;
2011;SDS011;1009;51.436;6.972;2022-07-06T07:58:14;2.33;;;0.67;;
2011;SDS011;1009;51.436;6.972;2022-07-06T08:00:41;2.73;;;0.87;;
2011;SDS011;1009;51.436;6.972;2022-07-06T08:03:07;2.27;;;0.80;;
2011;SDS011;1009;51.436;6.972;2022-07-06T08:05:34;9.57;;;1.17;;
2011;SDS011;1009;51.436;6.972;2022-07-06T08:08:01;6.67;;;1.40;;
2011;SDS011;1009;51.436;6.972;2022-07-06T08:10:28;2.90;;;0.80;;
2011;SDS011;1009;51.436;6.972;2022-07-06T08:12:56;3.20;;;0.83;;
2011;SDS011;1009;51.436;6.972;2022-07-06T08:15:23;2.63;;;0.90;;
2011;SDS011;1009;51.436;6.972;2022-07-06T08:17:50;3.53;;;0.80;;
2011;SDS011;1009;51.436;6.972;2022-07-06T08:20:17;2.53;;;0.90;;
2011;SDS011;1009;51.436;6.972;2022-07-06T08:22:44;4.30;;;0.83;;
2011;SDS011;1009;51.436;6.972;2022-07-06T08:25:10;1.70;;;0.80;;
2011;SDS011;1009;51.436;6.972;2022-07-06T08:27:37;4.77;;;1.30;;
2011;SDS011;1009;51.436;6.972;2022-07-06T08:30:06;2.20;;;1.00;;
2011;SDS011;1009;51.436;6.972;2022-07-06T08:32:37;5.87;;;1.10;;
2011;SDS011;1009;51.436;6.972;2022-07-06T08:35:04;2.50;;;1.40;;
2011;SDS011;1009;51.436;6.972;2022-07-06T08:37:31;9.00;;;1.70;;
2011;SDS011;1009;51.436;6.972;2022-07-06T08:39:58;2.10;;;1.00;;
2011;SDS011;1009;51.436;6.972;2022-07-06T08:42:25;3.83;;;1.40;;
2011;SDS011;1009;51.436;6.972;2022-07-06T08:44:57;2.73;;;1.17;;
2011;SDS011;1009;51.436;6.972;2022-07-06T08:47:27;3.07;;;1.00;;
2011;SDS011;1009;51.436;6.972;2022-07-06T08:49:54;4.57;;;1.40;;
2011;SDS011;1009;51.436;6.972;2022-07-06T08:52:21;2.63;;;1.20;;
2011;SDS011;1009;51.436;6.972;2022-07-06T08:54:52;2.60;;;1.43;;
2011;SDS011;1009;51.436;6.972;2022-07-06T08:57:19;1.90;;;0.93;;
2011;SDS011;1009;51.436;6.972;2022-07-06T08:59:46;3.10;;;1.30;;
2011;SDS011;1009;51.436;6.972;2022-07-06T09:02:13;5.30;;;1.03;;
2011;SDS011;1009;51.436;6.972;2022-07-06T09:04:44;3.03;;;1.20;;
2011;SDS011;1009;51.436;6.972;2022-07-06T09:07:13;3.30;;;1.40;;
2011;SDS011;1009;51.436;6.972;2022-07-06T09:09:41;4.17;;;1.90;;
2011;SDS011;1009;51.436;6.972;2022-07-06T09:12:11;3.10;;;1.70;;
2011;SDS011;1009;51.436;6.972;2022-07-06T09:14:38;5.00;;;1.70;;
2011;SDS011;1009;51.436;6.972;2022-07-06T09:17:06;2.20;;;1.17;;
2011;SDS011;1009;51.436;6.972;2022-07-06T09:19:34;2.60;;;1.20;;
2011;SDS011;1009;51.436;6.972;2022-07-06T09:22:08;1.70;;;0.97;;
2011;SDS011;1009;51.436;6.972;2022-07-06T09:24:37;4.33;;;1.20;;
2011;SDS011;1009;51.436;6.972;2022-07-06T09:27:14;3.17;;;1.37;;
2011;SDS011;1009;51.436;6.972;2022-07-06T09:29:46;8.77;;;1.97;;
2011;SDS011;1009;51.436;6.972;2022-07-06T09:32:12;2.70;;;1.10;;
2011;SDS011;1009;51.436;6.972;2022-07-06T09:34:46;3.33;;;1.20;;
2011;SDS011;1009;51.436;6.972;2022-07-06T09:37:15;3.00;;;1.13;;
2011;SDS011;1009;51.436;6.972;2022-07-06T09:39:42;3.93;;;1.10;;
2011;SDS011;1009;51.436;6.972;2022-07-06T09:42:10;4.80;;;0.93;;
2011;SDS011;1009;51.436;6.972;2022-07-06T09:44:37;2.93;;;0.87;;
2011;SDS011;1009;51.436;6.972;2022-07-06T09:47:11;3.57;;;1.10;;
2011;SDS011;1009;51.436;6.972;2022-07-06T09:49:39;7.43;;;1.50;;
2011;SDS011;1009;51.436;6.972;2022-07-06T09:52:07;3.00;;;0.80;;
2011;SDS011;1009;51.436;6.972;2022-07-06T09:54:36;1.70;;;0.93;;
2011;SDS011;1009;51.436;6.972;2022-07-06T09:57:04;3.53;;;1.20;;
2011;SDS011;1009;51.436;6.972;2022-07-06T09:59:32;2.93;;;1.30;;
2011;SDS011;1009;51.436;6.972;2022-07-06T10:02:01;3.87;;;1.90;;
2011;SDS011;1009;51.436;6.972;2022-07-06T10:04:29;2.67;;;1.97;;
2011;SDS011;1009;51.436;6.972;2022-07-06T10:06:57;2.73;;;1.20;;
2011;SDS011;1009;51.436;6.972;2022-07-06T10:09:25;4.00;;;1.37;;
2011;SDS011;1009;51.436;6.972;2022-07-06T10:11:56;1.67;;;0.97;;
2011;SDS011;1009;51.436;6.972;2022-07-06T10:14:25;2.60;;;1.10;;
2011;SDS011;1009;51.436;6.972;2022-07-06T10:16:54;2.47;;;1.00;;
2011;SDS011;1009;51.436;6.972;2022-07-06T10:19:22;5.47;;;1.67;;
2011;SDS011;1009;51.436;6.972;2022-07-06T10:21:49;3.97;;;1.30;;
2011;SDS011;1009;51.436;6.972;2022-07-06T10:24:18;3.20;;;1.17;;
2011;SDS011;1009;51.436;6.972;2022-07-06T10:26:45;1.50;;;0.90;;
2011;SDS011;1009;51.436;6.972;2022-07-06T10:29:15;3.80;;;1.40;;
2011;SDS011;1009;51.436;6.972;2022-07-06T10:31:43;2.17;;;1.07;;
2011;SDS011;1009;51.436;6.972;2022-07-06T10:34:12;3.30;;;1.10;;
2011;SDS011;1009;51.436;6.972;2022-07-06T10:36:42;3.53;;;1.40;;
2011;SDS011;1009;51.436;6.972;2022-07-06T10:39:10;2.87;;;1.10;;
2011;SDS011;1009;51.436;6.972;2022-07-06T10:42:03;1.67;;;1.00;;
2011;SDS011;1009;51.436;6.972;2022-07-06T10:44:31;2.50;;;1.40;;
2011;SDS011;1009;51.436;6.972;2022-07-06T10:47:10;3.83;;;1.53;;
2011;SDS011;1009;51.436;6.972;2022-07-06T10:49:37;2.60;;;1.37;;
2011;SDS011;1009;51.436;6.972;2022-07-06T10:52:16;4.73;;;1.67;;
2011;SDS011;1009;51.436;6.972;2022-07-06T10:54:42;4.20;;;1.70;;
2011;SDS011;1009;51.436;6.972;2022-07-06T10:57:10;3.97;;;1.33;;
2011;SDS011;1009;51.436;6.972;2022-07-06T10:59:41;2.80;;;1.13;;
2011;SDS011;1009;51.436;6.972;2022-07-06T11:02:29;2.83;;;1.20;;
2011;SDS011;1009;51.436;6.972;2022-07-06T11:05:05;3.50;;;1.40;;
2011;SDS011;1009;51.436;6.972;2022-07-06T11:07:39;4.80;;;1.73;;
2011;SDS011;1009;51.436;6.972;2022-07-06T11:10:14;3.60;;;1.60;;
2011;SDS011;1009;51.436;6.972;2022-07-06T11:12:44;3.50;;;1.40;;
2011;SDS011;1009;51.436;6.972;2022-07-06T11:15:12;2.30;;;1.23;;
2011;SDS011;1009;51.436;6.972;2022-07-06T11:18:18;4.87;;;1.47;;
2011;SDS011;1009;51.436;6.972;2022-07-06T11:23:43;2.63;;;0.97;;
2011;SDS011;1009;51.436;6.972;2022-07-06T11:26:12;2.13;;;1.20;;
2011;SDS011;1009;51.436;6.972;2022-07-06T11:28:39;4.37;;;1.10;;
2011;SDS011;1009;51.436;6.972;2022-07-06T11:31:08;5.43;;;1.10;;
2011;SDS011;1009;51.436;6.972;2022-07-06T11:33:34;4.23;;;1.20;;
2011;SDS011;1009;51.436;6.972;2022-07-06T11:36:17;2.73;;;1.30;;
2011;SDS011;1009;51.436;6.972;2022-07-06T11:38:46;3.73;;;1.10;;
2011;SDS011;1009;51.436;6.972;2022-07-06T11:41:14;3.47;;;1.17;;
2011;SDS011;1009;51.436;6.972;2022-07-06T11:43:42;3.00;;;1.20;;
2011;SDS011;1009;51.436;6.972;2022-07-06T11:46:24;3.90;;;1.20;;
2011;SDS011;1009;51.436;6.972;2022-07-06T11:48:52;2.63;;;1.00;;
2011;SDS011;1009;51.436;6.972;2022-07-06T11:51:27;5.73;;;1.33;;
2011;SDS011;1009;51.436;6.972;2022-07-06T11:53:55;4.60;;;1.37;;
2011;SDS011;1009;51.436;6.972;2022-07-06T11:56:24;5.43;;;1.03;;
2011;SDS011;1009;51.436;6.972;2022-07-06T11:58:53;3.10;;;0.90;;
2011;SDS011;1009;51.436;6.972;2022-07-06T12:01:20;5.33;;;1.10;;
2011;SDS011;1009;51.436;6.972;2022-07-06T12:03:50;3.30;;;1.10;;
2011;SDS011;1009;51.436;6.972;2022-07-06T12:06:21;3.30;;;0.80;;
2011;SDS011;1009;51.436;6.972;2022-07-06T12:08:51;2.57;;;1.17;;
2011;SDS011;1009;51.436;6.972;2022-07-06T12:11:19;1.67;;;0.93;;
2011;SDS011;1009;51.436;6.972;2022-07-06T12:13:50;3.33;;;1.23;;
2011;SDS011;1009;51.436;6.972;2022-07-06T12:16:18;2.70;;;1.20;;
2011;SDS011;1009;51.436;6.972;2022-07-06T12:18:49;4.43;;;1.77;;
2011;SDS011;1009;51.436;6.972;2022-07-06T12:21:17;3.53;;;1.37;;
2011;SDS011;1009;51.436;6.972;2022-07-06T12:23:47;3.03;;;1.33;;
2011;SDS011;1009;51.436;6.972;2022-07-06T12:26:17;2.93;;;1.13;;
2011;SDS011;1009;51.436;6.972;2022-07-06T12:28:45;2.63;;;1.30;;
2011;SDS011;1009;51.436;6.972;2022-07-06T12:34:01;6.03;;;1.47;;
2011;SDS011;1009;51.436;6.972;2022-07-06T12:36:41;1.73;;;1.00;;
2011;SDS011;1009;51.436;6.972;2022-07-06T12:39:10;3.10;;;1.00;;
2011;SDS011;1009;51.436;6.972;2022-07-06T12:41:37;2.97;;;1.10;;
2011;SDS011;1009;51.436;6.972;2022-07-06T12:44:10;3.90;;;1.43;;
2011;SDS011;1009;51.436;6.972;2022-07-06T12:46:38;4.23;;;1.37;;
2011;SDS011;1009;51.436;6.972;2022-07-06T12:49:14;2.40;;;1.10;;
2011;SDS011;1009;51.436;6.972;2022-07-06T12:51:50;2.90;;;1.23;;
2011;SDS011;1009;51.436;6.972;2022-07-06T12:54:21;1.87;;;1.10;;
2011;SDS011;1009;51.436;6.972;2022-07-06T12:56:58;3.63;;;1.30;;
2011;SDS011;1009;51.436;6.972;2022-07-06T12:59:26;2.03;;;1.10;;
2011;SDS011;1009;51.436;6.972;2022-07-06T13:01:54;5.63;;;1.30;;
2011;SDS011;1009;51.436;6.972;2022-07-06T13:04:23;2.47;;;1.07;;
2011;SDS011;1009;51.436;6.972;2022-07-06T13:06:54;2.63;;;0.63;;
2011;SDS011;1009;51.436;6.972;2022-07-06T13:09:21;5.07;;;0.93;;
2011;SDS011;1009;51.436;6.972;2022-07-06T13:11:48;1.87;;;0.70;;
2011;SDS011;1009;51.436;6.972;2022-07-06T13:14:15;2.10;;;0.70;;
2011;SDS011;1009;51.436;6.972;2022-07-06T13:16:43;4.10;;;0.80;;
2011;SDS011;1009;51.436;6.972;2022-07-06T13:19:10;3.13;;;1.00;;
2011;SDS011;1009;51.436;6.972;2022-07-06T13:21:39;2.10;;;0.70;;
2011;SDS011;1009;51.436;6.972;2022-07-06T13:24:06;1.47;;;0.97;;
2011;SDS011;1009;51.436;6.972;2022-07-06T13:26:33;1.90;;;0.80;;
2011;SDS011;1009;51.436;6.972;2022-07-06T13:29:00;2.30;;;0.90;;
2011;SDS011;1009;51.436;6.972;2022-07-06T13:31:27;2.03;;;0.80;;
2011;SDS011;1009;51.436;6.972;2022-07-06T13:33:54;4.93;;;0.80;;
2011;SDS011;1009;51.436;6.972;2022-07-06T13:36:22;2.90;;;0.97;;
2011;SDS011;1009;51.436;6.972;2022-07-06T13:38:50;1.27;;;0.53;;
2011;SDS011;1009;51.436;6.972;2022-07-06T13:41:17;1.90;;;0.83;;
2011;SDS011;1009;51.436;6.972;2022-07-06T13:43:44;4.77;;;0.90;;
2011;SDS011;1009;51.436;6.972;2022-07-06T13:46:13;4.03;;;1.10;;
2011;SDS011;1009;51.436;6.972;2022-07-06T13:48:41;3.80;;;1.27;;
2011;SDS011;1009;51.436;6.972;2022-07-06T13:51:09;4.30;;;0.90;;
2011;SDS011;1009;51.436;6.972;2022-07-06T13:53:36;2.63;;;0.90;;
2011;SDS011;1009;51.436;6.972;2022-07-06T13:56:05;1.90;;;0.93;;
2011;SDS011;1009;51.436;6.972;2022-07-06T13:58:33;6.10;;;1.30;;
2011;SDS011;1009;51.436;6.972;2022-07-06T14:00:59;1.90;;;0.90;;
2011;SDS011;1009;51.436;6.972;2022-07-06T14:03:26;2.80;;;0.93;;
2011;SDS011;1009;51.436;6.972;2022-07-06T14:05:54;2.03;;;0.80;;
2011;SDS011;1009;51.436;6.972;2022-07-06T14:08:22;3.83;;;0.60;;
2011;SDS011;1009;51.436;6.972;2022-07-06T14:10:49;2.17;;;0.80;;
2011;SDS011;1009;51.436;6.972;2022-07-06T14:13:17;5.83;;;0.67;;
2011;SDS011;1009;51.436;6.972;2022-07-06T14:15:44;1.57;;;0.80;;
2011;SDS011;1009;51.436;6.972;2022-07-06T14:18:12;3.20;;;0.80;;
2011;SDS011;1009;51.436;6.972;2022-07-06T14:20:39;2.33;;;1.00;;
2011;SDS011;1009;51.436;6.972;2022-07-06T14:23:06;3.60;;;0.80;;
2011;SDS011;1009;51.436;6.972;2022-07-06T14:25:33;1.83;;;0.80;;
2011;SDS011;1009;51.436;6.972;2022-07-06T14:28:00;2.93;;;1.20;;
2011;SDS011;1009;51.436;6.972;2022-07-06T14:30:29;10.83;;;1.27;;
2011;SDS011;1009;51.436;6.972;2022-07-06T14:32:55;2.90;;;1.27;;
2011;SDS011;1009;51.436;6.972;2022-07-06T14:35:23;2.87;;;1.10;;
2011;SDS011;1009;51.436;6.972;2022-07-06T14:37:50;3.23;;;0.97;;
2011;SDS011;1009;51.436;6.972;2022-07-06T14:40:17;2.60;;;0.80;;
2011;SDS011;1009;51.436;6.972;2022-07-06T14:42:44;4.03;;;0.90;;
2011;SDS011;1009;51.436;6.972;2022-07-06T14:45:11;3.97;;;0.90;;
2011;SDS011;1009;51.436;6.972;2022-07-06T14:47:39;1.57;;;0.97;;
2011;SDS011;1009;51.436;6.972;2022-07-06T14:50:06;1.60;;;1.13;;
2011;SDS011;1009;51.436;6.972;2022-07-06T14:52:33;2.87;;;1.00;;
2011;SDS011;1009;51.436;6.972;2022-07-06T14:55:00;1.13;;;0.63;;
2011;SDS011;1009;51.436;6.972;2022-07-06T14:57:27;2.60;;;0.90;;
2011;SDS011;1009;51.436;6.972;2022-07-06T14:59:54;1.90;;;0.90;;
2011;SDS011;1009;51.436;6.972;2022-07-06T15:02:20;2.33;;;0.83;;
2011;SDS011;1009;51.436;6.972;2022-07-06T15:04:48;2.50;;;0.60;;
2011;SDS011;1009;51.436;6.972;2022-07-06T15:07:15;4.17;;;0.70;;
2011;SDS011;1009;51.436;6.972;2022-07-06T15:09:42;1.70;;;0.70;;
2011;SDS011;1009;51.436;6.972;2022-07-06T15:12:09;3.97;;;1.20;;
2011;SDS011;1009;51.436;6.972;2022-07-06T15:14:36;4.47;;;1.17;;
2011;SDS011;1009;51.436;6.972;2022-07-06T15:17:04;4.30;;;1.10;;
2011;SDS011;1009;51.436;6.972;2022-07-06T15:19:31;1.50;;;0.70;;
2011;SDS011;1009;51.436;6.972;2022-07-06T15:21:59;2.33;;;0.70;;
2011;SDS011;1009;51.436;6.972;2022-07-06T15:24:26;1.40;;;0.70;;
2011;SDS011;1009;51.436;6.972;2022-07-06T15:26:53;2.33;;;0.60;;